Cross Plains, IN (47017)

7:24 AM EST on December 03, 2016 (GMT -0500)
APRSWXNET | | Change Station

Elev 639 ft 38.97 °N, 85.15 °W | Updated 26 minutes ago

Overcast
Overcast
36 °F
Feels Like 36 °F
N
0
Wind Variable Wind from ESE
Gusts 1.0 mph

Today
High -- | Low -- °F
--% Chance of Precip.
Yesterday
High -- | Low -- °F
Precip. -- in
Pressure 30.34 in
Visibility 10.0 miles
Clouds Overcast 3100 ft
Windchill 36 °F
Dew Point 34 °F
Humidity 92%
Rainfall in
Snow Depth Not available.
7:42 AM 5:18 PM
Waxing Crescent, 14% visible
METAR KCVG 031152Z 28004KT 10SM OVC031 02/01 A3033 RMK AO2 SLP274 60000 T00220011 10028 20022 50002
Pressure 30.34 in
Visibility 10.0 miles
Clouds Overcast 3100 ft
Windchill 36 °F
Dew Point 34 °F
Humidity 92%
Rainfall in
Snow Depth Not available.
7:42 AM 5:18 PM
Waxing Crescent, 14% visible
METAR KCVG 031152Z 28004KT 10SM OVC031 02/01 A3033 RMK AO2 SLP274 60000 T00220011 10028 20022 50002

10-Day Weather Forecast

Almanac

Astronomy

Dec. 03, 2016 Rise Set
Actual Time
Civil Twilight
Nautical Twilight
Astronomical Twilight
Moon
Length of Visible Light
Length of Day
Tomorrow will be .
, % of the Moon is Illuminated

Today's Extremes

State Highs State Lows

Community

WunderPhotos

Upload Photos

1,955,441 photos uploaded!

WunderBlog® & News

Nearby

Air Quality

  Air Quality AQ Index Pollutant
Not available.

Snow Depth

Station Depth Elevation

Earthquake Activity

City Distance Mag. Time & Date
Minimum magnitude displayed is 2.5.

Coastal Water Temperatures

Place Temperature

Stations

Nearby Weather Stations

Station Location Temp. Windchill Dew Point Humidity Wind Precip. Elev Updated Type
                   

Watches & Warnings

There are currently no watches in effect.